sensor_id;sensor_type;location;lat;lon;timestamp;P1;durP1;ratioP1;P2;durP2;ratioP2
61009;SDS011;46897;55.340;86.082;2023-05-02T08:13:35;22.27;;;5.30;;
61009;SDS011;46897;55.340;86.082;2023-05-02T08:16:04;7.95;;;4.88;;
61009;SDS011;46897;55.340;86.082;2023-05-02T08:18:34;9.23;;;4.63;;
61009;SDS011;46897;55.340;86.082;2023-05-02T08:21:22;8.13;;;4.82;;
61009;SDS011;46897;55.340;86.082;2023-05-02T08:23:52;7.53;;;5.15;;
61009;SDS011;46897;55.340;86.082;2023-05-02T08:26:44;9.07;;;5.30;;
61009;SDS011;46897;55.340;86.082;2023-05-02T08:29:15;6.15;;;4.72;;
61009;SDS011;46897;55.340;86.082;2023-05-02T08:31:44;7.85;;;5.43;;
61009;SDS011;46897;55.340;86.082;2023-05-02T08:34:13;12.00;;;5.47;;
61009;SDS011;46897;55.340;86.082;2023-05-02T08:36:42;9.05;;;4.60;;
61009;SDS011;46897;55.340;86.082;2023-05-02T08:42:00;15.50;;;6.07;;
61009;SDS011;46897;55.340;86.082;2023-05-02T08:44:35;22.13;;;5.72;;
61009;SDS011;46897;55.340;86.082;2023-05-02T08:47:05;8.80;;;4.93;;
61009;SDS011;46897;55.340;86.082;2023-05-02T08:52:24;7.78;;;3.83;;
61009;SDS011;46897;55.340;86.082;2023-05-02T08:54:54;8.77;;;4.88;;
61009;SDS011;46897;55.340;86.082;2023-05-02T08:57:24;12.68;;;5.60;;
61009;SDS011;46897;55.340;86.082;2023-05-02T08:59:57;9.02;;;5.15;;
61009;SDS011;46897;55.340;86.082;2023-05-02T09:02:44;11.85;;;5.63;;
61009;SDS011;46897;55.340;86.082;2023-05-02T09:05:22;11.65;;;5.30;;
61009;SDS011;46897;55.340;86.082;2023-05-02T09:07:52;9.55;;;4.72;;
61009;SDS011;46897;55.340;86.082;2023-05-02T09:10:39;8.88;;;4.45;;
61009;SDS011;46897;55.340;86.082;2023-05-02T09:13:27;17.15;;;5.93;;
61009;SDS011;46897;55.340;86.082;2023-05-02T09:16:02;8.18;;;4.78;;
61009;SDS011;46897;55.340;86.082;2023-05-02T09:18:33;14.48;;;5.03;;
61009;SDS011;46897;55.340;86.082;2023-05-02T09:21:22;8.43;;;4.80;;
61009;SDS011;46897;55.340;86.082;2023-05-02T09:23:53;10.82;;;5.50;;
61009;SDS011;46897;55.340;86.082;2023-05-02T09:26:24;17.75;;;5.30;;
61009;SDS011;46897;55.340;86.082;2023-05-02T09:28:57;8.85;;;4.90;;
61009;SDS011;46897;55.340;86.082;2023-05-02T09:31:29;11.13;;;6.18;;
61009;SDS011;46897;55.340;86.082;2023-05-02T09:34:22;8.38;;;4.97;;
61009;SDS011;46897;55.340;86.082;2023-05-02T09:37:09;8.75;;;5.72;;
61009;SDS011;46897;55.340;86.082;2023-05-02T09:39:39;12.57;;;5.60;;
61009;SDS011;46897;55.340;86.082;2023-05-02T09:42:08;11.27;;;6.10;;
61009;SDS011;46897;55.340;86.082;2023-05-02T09:44:38;25.98;;;6.30;;
61009;SDS011;46897;55.340;86.082;2023-05-02T09:47:27;31.92;;;7.32;;
61009;SDS011;46897;55.340;86.082;2023-05-02T09:49:56;7.30;;;4.10;;
61009;SDS011;46897;55.340;86.082;2023-05-02T09:52:25;10.43;;;6.57;;
61009;SDS011;46897;55.340;86.082;2023-05-02T09:54:54;13.00;;;7.00;;
61009;SDS011;46897;55.340;86.082;2023-05-02T09:57:33;15.68;;;6.13;;
61009;SDS011;46897;55.340;86.082;2023-05-02T10:00:07;18.25;;;5.90;;
61009;SDS011;46897;55.340;86.082;2023-05-02T10:02:39;10.48;;;5.40;;
61009;SDS011;46897;55.340;86.082;2023-05-02T10:05:10;12.75;;;5.65;;
61009;SDS011;46897;55.340;86.082;2023-05-02T10:07:39;8.15;;;5.43;;
61009;SDS011;46897;55.340;86.082;2023-05-02T10:10:09;12.73;;;6.60;;
61009;SDS011;46897;55.340;86.082;2023-05-02T10:12:45;9.75;;;5.75;;
61009;SDS011;46897;55.340;86.082;2023-05-02T10:18:27;11.82;;;5.32;;
61009;SDS011;46897;55.340;86.082;2023-05-02T10:21:04;11.18;;;6.80;;
61009;SDS011;46897;55.340;86.082;2023-05-02T10:23:36;9.93;;;6.32;;
61009;SDS011;46897;55.340;86.082;2023-05-02T10:26:14;10.75;;;5.22;;
61009;SDS011;46897;55.340;86.082;2023-05-02T10:28:44;13.02;;;5.60;;
61009;SDS011;46897;55.340;86.082;2023-05-02T10:34:05;9.52;;;5.63;;
61009;SDS011;46897;55.340;86.082;2023-05-02T10:39:27;13.15;;;6.38;;
61009;SDS011;46897;55.340;86.082;2023-05-02T10:41:58;16.70;;;9.15;;
61009;SDS011;46897;55.340;86.082;2023-05-02T10:44:32;9.90;;;5.93;;
61009;SDS011;46897;55.340;86.082;2023-05-02T10:47:16;10.75;;;5.80;;
61009;SDS011;46897;55.340;86.082;2023-05-02T10:49:52;9.18;;;5.72;;
61009;SDS011;46897;55.340;86.082;2023-05-02T10:52:24;16.17;;;6.38;;
61009;SDS011;46897;55.340;86.082;2023-05-02T10:55:18;10.60;;;6.32;;
61009;SDS011;46897;55.340;86.082;2023-05-02T11:00:49;13.80;;;7.00;;
61009;SDS011;46897;55.340;86.082;2023-05-02T11:06:26;11.80;;;7.43;;
61009;SDS011;46897;55.340;86.082;2023-05-02T11:12:01;12.07;;;6.88;;
61009;SDS011;46897;55.340;86.082;2023-05-02T11:14:46;12.27;;;7.50;;
61009;SDS011;46897;55.340;86.082;2023-05-02T11:17:45;14.50;;;7.68;;
61009;SDS011;46897;55.340;86.082;2023-05-02T11:20:27;15.35;;;8.52;;
61009;SDS011;46897;55.340;86.082;2023-05-02T11:23:18;16.90;;;8.80;;
61009;SDS011;46897;55.340;86.082;2023-05-02T11:25:55;17.07;;;7.77;;
61009;SDS011;46897;55.340;86.082;2023-05-02T11:28:39;22.52;;;9.98;;
61009;SDS011;46897;55.340;86.082;2023-05-02T11:34:39;12.18;;;6.10;;
61009;SDS011;46897;55.340;86.082;2023-05-02T11:37:28;23.65;;;9.07;;
61009;SDS011;46897;55.340;86.082;2023-05-02T11:40:16;11.75;;;6.63;;
61009;SDS011;46897;55.340;86.082;2023-05-02T11:42:46;6.85;;;5.03;;
61009;SDS011;46897;55.340;86.082;2023-05-02T11:45:15;9.02;;;4.90;;
61009;SDS011;46897;55.340;86.082;2023-05-02T11:47:45;11.20;;;5.75;;
61009;SDS011;46897;55.340;86.082;2023-05-02T11:50:14;9.23;;;5.10;;
61009;SDS011;46897;55.340;86.082;2023-05-02T11:52:44;8.10;;;5.03;;
61009;SDS011;46897;55.340;86.082;2023-05-02T11:55:13;7.75;;;4.88;;
61009;SDS011;46897;55.340;86.082;2023-05-02T11:57:44;10.52;;;5.07;;
61009;SDS011;46897;55.340;86.082;2023-05-02T12:00:14;11.90;;;5.38;;
61009;SDS011;46897;55.340;86.082;2023-05-02T12:02:45;22.45;;;6.47;;
61009;SDS011;46897;55.340;86.082;2023-05-02T12:05:21;12.43;;;5.55;;
61009;SDS011;46897;55.340;86.082;2023-05-02T12:08:17;17.75;;;5.63;;
61009;SDS011;46897;55.340;86.082;2023-05-02T12:10:48;10.00;;;5.95;;
61009;SDS011;46897;55.340;86.082;2023-05-02T12:16:12;18.60;;;6.97;;
61009;SDS011;46897;55.340;86.082;2023-05-02T12:18:41;10.20;;;5.70;;
61009;SDS011;46897;55.340;86.082;2023-05-02T12:21:11;9.45;;;5.40;;
61009;SDS011;46897;55.340;86.082;2023-05-02T12:23:41;9.48;;;5.85;;
61009;SDS011;46897;55.340;86.082;2023-05-02T12:26:19;16.23;;;6.57;;
61009;SDS011;46897;55.340;86.082;2023-05-02T12:28:51;9.25;;;5.65;;
61009;SDS011;46897;55.340;86.082;2023-05-02T12:31:22;7.00;;;5.43;;
61009;SDS011;46897;55.340;86.082;2023-05-02T12:33:53;10.27;;;5.70;;
61009;SDS011;46897;55.340;86.082;2023-05-02T12:36:44;11.43;;;5.95;;
61009;SDS011;46897;55.340;86.082;2023-05-02T12:39:17;8.55;;;6.03;;
61009;SDS011;46897;55.340;86.082;2023-05-02T12:44:54;15.00;;;8.05;;
61009;SDS011;46897;55.340;86.082;2023-05-02T12:47:24;11.40;;;6.85;;
61009;SDS011;46897;55.340;86.082;2023-05-02T12:50:10;22.98;;;7.82;;
61009;SDS011;46897;55.340;86.082;2023-05-02T12:52:45;11.38;;;6.50;;
61009;SDS011;46897;55.340;86.082;2023-05-02T12:55:17;14.88;;;7.35;;
61009;SDS011;46897;55.340;86.082;2023-05-02T12:57:49;10.80;;;6.20;;
61009;SDS011;46897;55.340;86.082;2023-05-02T13:00:36;14.25;;;7.82;;
61009;SDS011;46897;55.340;86.082;2023-05-02T13:03:24;16.17;;;7.70;;
61009;SDS011;46897;55.340;86.082;2023-05-02T13:08:43;20.27;;;9.20;;
61009;SDS011;46897;55.340;86.082;2023-05-02T13:11:13;12.82;;;7.25;;
61009;SDS011;46897;55.340;86.082;2023-05-02T13:14:02;17.20;;;8.43;;
61009;SDS011;46897;55.340;86.082;2023-05-02T13:16:31;14.90;;;7.20;;
61009;SDS011;46897;55.340;86.082;2023-05-02T13:19:03;17.15;;;7.30;;
61009;SDS011;46897;55.340;86.082;2023-05-02T13:21:32;21.52;;;8.95;;
61009;SDS011;46897;55.340;86.082;2023-05-02T13:26:50;13.65;;;5.93;;
61009;SDS011;46897;55.340;86.082;2023-05-02T13:29:38;19.60;;;8.02;;
61009;SDS011;46897;55.340;86.082;2023-05-02T13:32:25;13.18;;;8.05;;
61009;SDS011;46897;55.340;86.082;2023-05-02T13:34:54;14.65;;;7.75;;
61009;SDS011;46897;55.340;86.082;2023-05-02T13:37:23;12.93;;;7.25;;
61009;SDS011;46897;55.340;86.082;2023-05-02T13:43:00;14.05;;;7.65;;
61009;SDS011;46897;55.340;86.082;2023-05-02T13:45:34;15.32;;;6.72;;
61009;SDS011;46897;55.340;86.082;2023-05-02T13:48:14;13.32;;;6.43;;
61009;SDS011;46897;55.340;86.082;2023-05-02T13:50:47;15.52;;;6.78;;
61009;SDS011;46897;55.340;86.082;2023-05-02T13:53:18;20.02;;;8.00;;
61009;SDS011;46897;55.340;86.082;2023-05-02T13:55:49;18.17;;;6.88;;
61009;SDS011;46897;55.340;86.082;2023-05-02T13:58:22;13.00;;;6.70;;
61009;SDS011;46897;55.340;86.082;2023-05-02T14:03:46;15.75;;;8.02;;
61009;SDS011;46897;55.340;86.082;2023-05-02T14:09:05;20.83;;;8.95;;
61009;SDS011;46897;55.340;86.082;2023-05-02T14:11:34;18.63;;;8.10;;
61009;SDS011;46897;55.340;86.082;2023-05-02T14:14:22;17.88;;;8.45;;
61009;SDS011;46897;55.340;86.082;2023-05-02T14:16:53;18.75;;;9.07;;
61009;SDS011;46897;55.340;86.082;2023-05-02T14:19:22;30.73;;;10.23;;
61009;SDS011;46897;55.340;86.082;2023-05-02T14:27:55;29.65;;;11.60;;
61009;SDS011;46897;55.340;86.082;2023-05-02T14:30:48;23.17;;;10.93;;
61009;SDS011;46897;55.340;86.082;2023-05-02T14:33:23;28.17;;;10.95;;
61009;SDS011;46897;55.340;86.082;2023-05-02T14:35:52;27.42;;;12.35;;
61009;SDS011;46897;55.340;86.082;2023-05-02T14:38:21;36.13;;;12.68;;
61009;SDS011;46897;55.340;86.082;2023-05-02T14:40:54;37.25;;;13.90;;
61009;SDS011;46897;55.340;86.082;2023-05-02T14:43:25;36.75;;;14.02;;
61009;SDS011;46897;55.340;86.082;2023-05-02T14:49:05;32.95;;;14.73;;
61009;SDS011;46897;55.340;86.082;2023-05-02T14:51:39;43.55;;;18.50;;
61009;SDS011;46897;55.340;86.082;2023-05-02T14:54:14;42.65;;;17.67;;
61009;SDS011;46897;55.340;86.082;2023-05-02T14:56:44;27.63;;;13.30;;
61009;SDS011;46897;55.340;86.082;2023-05-02T15:02:04;30.48;;;14.05;;
61009;SDS011;46897;55.340;86.082;2023-05-02T15:04:39;33.47;;;13.07;;
61009;SDS011;46897;55.340;86.082;2023-05-02T15:07:18;29.88;;;11.88;;
61009;SDS011;46897;55.340;86.082;2023-05-02T15:09:47;26.35;;;12.80;;
61009;SDS011;46897;55.340;86.082;2023-05-02T15:15:22;32.35;;;13.30;;
61009;SDS011;46897;55.340;86.082;2023-05-02T15:17:51;31.80;;;12.48;;
61009;SDS011;46897;55.340;86.082;2023-05-02T15:20:22;24.67;;;13.07;;
61009;SDS011;46897;55.340;86.082;2023-05-02T15:22:52;25.55;;;12.50;;
61009;SDS011;46897;55.340;86.082;2023-05-02T15:25:21;29.50;;;12.60;;
61009;SDS011;46897;55.340;86.082;2023-05-02T15:27:50;25.65;;;12.40;;
61009;SDS011;46897;55.340;86.082;2023-05-02T15:30:20;28.60;;;12.50;;
61009;SDS011;46897;55.340;86.082;2023-05-02T15:32:49;35.85;;;14.00;;
61009;SDS011;46897;55.340;86.082;2023-05-02T15:35:18;29.20;;;13.45;;
61009;SDS011;46897;55.340;86.082;2023-05-02T15:37:51;24.73;;;12.35;;
61009;SDS011;46897;55.340;86.082;2023-05-02T15:40:21;22.25;;;10.95;;
61009;SDS011;46897;55.340;86.082;2023-05-02T15:42:51;30.70;;;12.07;;
61009;SDS011;46897;55.340;86.082;2023-05-02T15:45:21;42.78;;;16.95;;
61009;SDS011;46897;55.340;86.082;2023-05-02T15:47:50;24.70;;;11.65;;
61009;SDS011;46897;55.340;86.082;2023-05-02T15:50:19;25.52;;;11.38;;
61009;SDS011;46897;55.340;86.082;2023-05-02T15:52:50;18.98;;;9.02;;
61009;SDS011;46897;55.340;86.082;2023-05-02T15:55:20;18.75;;;9.20;;
61009;SDS011;46897;55.340;86.082;2023-05-02T15:57:49;22.50;;;10.07;;
61009;SDS011;46897;55.340;86.082;2023-05-02T16:00:19;26.58;;;10.23;;
61009;SDS011;46897;55.340;86.082;2023-05-02T16:02:48;24.83;;;10.10;;
61009;SDS011;46897;55.340;86.082;2023-05-02T16:05:17;27.65;;;11.52;;
61009;SDS011;46897;55.340;86.082;2023-05-02T16:07:46;29.35;;;12.07;;
61009;SDS011;46897;55.340;86.082;2023-05-02T16:13:06;38.88;;;17.52;;
61009;SDS011;46897;55.340;86.082;2023-05-02T16:15:35;44.20;;;18.15;;
61009;SDS011;46897;55.340;86.082;2023-05-02T16:18:07;56.45;;;24.60;;
61009;SDS011;46897;55.340;86.082;2023-05-02T16:20:39;63.25;;;25.75;;
61009;SDS011;46897;55.340;86.082;2023-05-02T16:23:08;70.95;;;29.35;;
61009;SDS011;46897;55.340;86.082;2023-05-02T16:25:39;68.28;;;26.38;;
61009;SDS011;46897;55.340;86.082;2023-05-02T16:28:27;72.80;;;29.38;;
61009;SDS011;46897;55.340;86.082;2023-05-02T16:31:14;57.50;;;23.98;;
61009;SDS011;46897;55.340;86.082;2023-05-02T16:34:00;66.05;;;27.00;;
61009;SDS011;46897;55.340;86.082;2023-05-02T16:39:17;54.00;;;22.60;;
61009;SDS011;46897;55.340;86.082;2023-05-02T16:41:48;51.83;;;22.48;;
61009;SDS011;46897;55.340;86.082;2023-05-02T16:44:35;55.55;;;21.25;;
61009;SDS011;46897;55.340;86.082;2023-05-02T16:47:23;46.28;;;19.63;;
61009;SDS011;46897;55.340;86.082;2023-05-02T16:50:10;57.55;;;22.10;;
61009;SDS011;46897;55.340;86.082;2023-05-02T16:52:40;52.97;;;21.10;;
61009;SDS011;46897;55.340;86.082;2023-05-02T16:55:10;41.15;;;16.30;;
61009;SDS011;46897;55.340;86.082;2023-05-02T16:57:41;39.63;;;16.67;;
61009;SDS011;46897;55.340;86.082;2023-05-02T17:00:10;37.25;;;16.40;;
61009;SDS011;46897;55.340;86.082;2023-05-02T17:02:40;36.95;;;15.07;;
61009;SDS011;46897;55.340;86.082;2023-05-02T17:05:10;39.05;;;15.68;;
61009;SDS011;46897;55.340;86.082;2023-05-02T17:07:39;42.58;;;16.15;;
61009;SDS011;46897;55.340;86.082;2023-05-02T17:10:26;34.58;;;14.52;;
61009;SDS011;46897;55.340;86.082;2023-05-02T17:12:57;30.40;;;13.65;;
61009;SDS011;46897;55.340;86.082;2023-05-02T17:21:02;23.92;;;11.93;;
61009;SDS011;46897;55.340;86.082;2023-05-02T17:23:31;40.65;;;14.00;;
61009;SDS011;46897;55.340;86.082;2023-05-02T17:26:00;29.08;;;13.00;;
61009;SDS011;46897;55.340;86.082;2023-05-02T17:28:32;30.15;;;13.75;;
61009;SDS011;46897;55.340;86.082;2023-05-02T17:31:02;25.30;;;11.73;;
61009;SDS011;46897;55.340;86.082;2023-05-02T17:33:31;36.83;;;12.73;;
61009;SDS011;46897;55.340;86.082;2023-05-02T17:36:01;32.97;;;12.50;;
61009;SDS011;46897;55.340;86.082;2023-05-02T17:41:18;24.48;;;11.88;;
61009;SDS011;46897;55.340;86.082;2023-05-02T17:43:49;21.77;;;9.48;;
61009;SDS011;46897;55.340;86.082;2023-05-02T17:46:18;24.42;;;11.15;;
61009;SDS011;46897;55.340;86.082;2023-05-02T17:48:47;27.65;;;11.52;;
61009;SDS011;46897;55.340;86.082;2023-05-02T17:51:17;29.80;;;13.43;;
61009;SDS011;46897;55.340;86.082;2023-05-02T17:56:35;32.35;;;14.68;;
61009;SDS011;46897;55.340;86.082;2023-05-02T17:59:23;33.67;;;14.48;;
61009;SDS011;46897;55.340;86.082;2023-05-02T18:01:53;35.42;;;16.17;;
61009;SDS011;46897;55.340;86.082;2023-05-02T18:07:11;30.90;;;13.43;;
61009;SDS011;46897;55.340;86.082;2023-05-02T18:09:57;34.38;;;16.10;;
61009;SDS011;46897;55.340;86.082;2023-05-02T18:13:02;36.55;;;16.27;;
61009;SDS011;46897;55.340;86.082;2023-05-02T18:15:33;41.45;;;17.33;;
61009;SDS011;46897;55.340;86.082;2023-05-02T18:18:02;46.13;;;19.95;;
61009;SDS011;46897;55.340;86.082;2023-05-02T18:23:19;47.50;;;18.70;;
61009;SDS011;46897;55.340;86.082;2023-05-02T18:25:49;42.38;;;17.52;;
61009;SDS011;46897;55.340;86.082;2023-05-02T18:28:18;51.95;;;20.85;;
61009;SDS011;46897;55.340;86.082;2023-05-02T18:30:48;53.58;;;20.23;;
61009;SDS011;46897;55.340;86.082;2023-05-02T18:33:18;51.28;;;21.08;;
61009;SDS011;46897;55.340;86.082;2023-05-02T18:35:47;58.05;;;22.73;;
61009;SDS011;46897;55.340;86.082;2023-05-02T18:38:16;58.53;;;22.25;;
61009;SDS011;46897;55.340;86.082;2023-05-02T18:41:02;61.95;;;24.67;;
61009;SDS011;46897;55.340;86.082;2023-05-02T18:43:32;80.30;;;29.15;;
61009;SDS011;46897;55.340;86.082;2023-05-02T18:46:02;84.05;;;31.77;;
61009;SDS011;46897;55.340;86.082;2023-05-02T18:48:32;81.05;;;31.95;;
61009;SDS011;46897;55.340;86.082;2023-05-02T18:51:01;97.97;;;36.15;;
61009;SDS011;46897;55.340;86.082;2023-05-02T18:53:30;84.57;;;33.83;;
61009;SDS011;46897;55.340;86.082;2023-05-02T18:55:59;94.55;;;36.33;;
61009;SDS011;46897;55.340;86.082;2023-05-02T18:58:29;88.53;;;33.55;;
61009;SDS011;46897;55.340;86.082;2023-05-02T19:03:47;86.97;;;33.22;;
61009;SDS011;46897;55.340;86.082;2023-05-02T19:06:17;85.70;;;33.10;;
61009;SDS011;46897;55.340;86.082;2023-05-02T19:08:47;78.70;;;32.00;;
61009;SDS011;46897;55.340;86.082;2023-05-02T19:11:34;92.18;;;35.85;;
61009;SDS011;46897;55.340;86.082;2023-05-02T19:20:16;98.28;;;35.78;;
61009;SDS011;46897;55.340;86.082;2023-05-02T19:22:45;99.65;;;35.65;;
61009;SDS011;46897;55.340;86.082;2023-05-02T19:28:20;82.07;;;32.03;;
61009;SDS011;46897;55.340;86.082;2023-05-02T19:33:55;77.72;;;29.65;;
61009;SDS011;46897;55.340;86.082;2023-05-02T19:36:26;86.18;;;31.10;;
61009;SDS011;46897;55.340;86.082;2023-05-02T19:38:55;84.50;;;31.15;;
61009;SDS011;46897;55.340;86.082;2023-05-02T19:41:43;72.55;;;29.92;;
61009;SDS011;46897;55.340;86.082;2023-05-02T19:44:13;92.30;;;35.03;;
61009;SDS011;46897;55.340;86.082;2023-05-02T19:46:43;88.60;;;32.85;;
61009;SDS011;46897;55.340;86.082;2023-05-02T19:49:13;81.75;;;31.88;;
61009;SDS011;46897;55.340;86.082;2023-05-02T19:54:31;79.95;;;31.27;;
61009;SDS011;46897;55.340;86.082;2023-05-02T19:57:00;71.57;;;28.30;;
61009;SDS011;46897;55.340;86.082;2023-05-02T19:59:30;84.50;;;32.00;;
61009;SDS011;46897;55.340;86.082;2023-05-02T20:01:59;81.68;;;32.10;;
61009;SDS011;46897;55.340;86.082;2023-05-02T20:04:28;84.18;;;33.97;;
61009;SDS011;46897;55.340;86.082;2023-05-02T20:06:57;84.65;;;32.83;;
61009;SDS011;46897;55.340;86.082;2023-05-02T20:09:28;78.63;;;32.58;;
61009;SDS011;46897;55.340;86.082;2023-05-02T20:11:57;80.03;;;32.17;;
61009;SDS011;46897;55.340;86.082;2023-05-02T20:14:26;70.97;;;29.02;;
61009;SDS011;46897;55.340;86.082;2023-05-02T20:17:12;63.90;;;26.88;;
61009;SDS011;46897;55.340;86.082;2023-05-02T20:20:00;73.22;;;29.40;;
61009;SDS011;46897;55.340;86.082;2023-05-02T20:25:23;61.97;;;24.50;;
61009;SDS011;46897;55.340;86.082;2023-05-02T20:27:52;59.00;;;24.05;;
61009;SDS011;46897;55.340;86.082;2023-05-02T20:30:38;54.75;;;23.08;;
61009;SDS011;46897;55.340;86.082;2023-05-02T20:33:08;48.83;;;20.35;;
61009;SDS011;46897;55.340;86.082;2023-05-02T20:38:30;41.05;;;18.15;;
61009;SDS011;46897;55.340;86.082;2023-05-02T20:41:00;43.33;;;17.08;;
61009;SDS011;46897;55.340;86.082;2023-05-02T20:43:34;41.53;;;18.43;;
61009;SDS011;46897;55.340;86.082;2023-05-02T20:46:08;40.10;;;18.00;;
61009;SDS011;46897;55.340;86.082;2023-05-02T20:48:38;36.45;;;15.88;;
61009;SDS011;46897;55.340;86.082;2023-05-02T20:51:07;36.42;;;17.00;;
61009;SDS011;46897;55.340;86.082;2023-05-02T20:53:36;38.35;;;16.40;;
61009;SDS011;46897;55.340;86.082;2023-05-02T20:56:07;41.00;;;17.60;;
61009;SDS011;46897;55.340;86.082;2023-05-02T20:58:36;40.40;;;16.67;;
61009;SDS011;46897;55.340;86.082;2023-05-02T21:01:05;43.50;;;18.17;;
61009;SDS011;46897;55.340;86.082;2023-05-02T21:03:35;36.28;;;17.42;;
61009;SDS011;46897;55.340;86.082;2023-05-02T21:06:21;45.25;;;19.02;;
61009;SDS011;46897;55.340;86.082;2023-05-02T21:11:39;48.13;;;21.10;;
61009;SDS011;46897;55.340;86.082;2023-05-02T21:14:09;50.90;;;20.92;;
61009;SDS011;46897;55.340;86.082;2023-05-02T21:16:38;49.80;;;21.20;;
61009;SDS011;46897;55.340;86.082;2023-05-02T21:19:07;51.95;;;22.23;;
61009;SDS011;46897;55.340;86.082;2023-05-02T21:21:37;51.47;;;22.38;;
61009;SDS011;46897;55.340;86.082;2023-05-02T21:24:06;53.72;;;22.65;;
61009;SDS011;46897;55.340;86.082;2023-05-02T21:26:36;57.90;;;24.05;;
61009;SDS011;46897;55.340;86.082;2023-05-02T21:29:08;49.95;;;22.88;;
61009;SDS011;46897;55.340;86.082;2023-05-02T21:31:55;54.97;;;23.60;;
61009;SDS011;46897;55.340;86.082;2023-05-02T21:34:25;61.78;;;25.63;;
61009;SDS011;46897;55.340;86.082;2023-05-02T21:36:54;55.78;;;24.42;;
61009;SDS011;46897;55.340;86.082;2023-05-02T21:39:23;63.88;;;26.35;;
61009;SDS011;46897;55.340;86.082;2023-05-02T21:41:52;62.40;;;27.17;;
61009;SDS011;46897;55.340;86.082;2023-05-02T21:44:23;59.53;;;25.85;;
61009;SDS011;46897;55.340;86.082;2023-05-02T21:46:52;55.72;;;24.08;;
61009;SDS011;46897;55.340;86.082;2023-05-02T21:49:22;55.13;;;24.45;;
61009;SDS011;46897;55.340;86.082;2023-05-02T21:52:08;54.30;;;23.77;;
61009;SDS011;46897;55.340;86.082;2023-05-02T21:54:37;57.33;;;24.40;;
61009;SDS011;46897;55.340;86.082;2023-05-02T21:57:06;55.60;;;23.52;;
61009;SDS011;46897;55.340;86.082;2023-05-02T22:02:43;55.88;;;23.58;;
61009;SDS011;46897;55.340;86.082;2023-05-02T22:05:13;55.55;;;22.80;;
61009;SDS011;46897;55.340;86.082;2023-05-02T22:07:42;56.03;;;22.90;;
61009;SDS011;46897;55.340;86.082;2023-05-02T22:10:16;50.42;;;22.23;;
61009;SDS011;46897;55.340;86.082;2023-05-02T22:18:43;46.65;;;20.67;;
61009;SDS011;46897;55.340;86.082;2023-05-02T22:21:29;51.40;;;20.65;;
61009;SDS011;46897;55.340;86.082;2023-05-02T22:23:58;52.28;;;23.67;;
61009;SDS011;46897;55.340;86.082;2023-05-02T22:26:27;52.05;;;22.17;;
61009;SDS011;46897;55.340;86.082;2023-05-02T22:29:15;48.70;;;21.13;;
61009;SDS011;46897;55.340;86.082;2023-05-02T22:31:44;56.72;;;24.27;;
61009;SDS011;46897;55.340;86.082;2023-05-02T22:34:16;52.50;;;22.48;;
61009;SDS011;46897;55.340;86.082;2023-05-02T22:37:03;64.15;;;24.60;;
61009;SDS011;46897;55.340;86.082;2023-05-02T22:39:32;58.65;;;23.48;;
61009;SDS011;46897;55.340;86.082;2023-05-02T22:42:01;60.03;;;23.25;;
61009;SDS011;46897;55.340;86.082;2023-05-02T22:44:31;54.95;;;22.05;;
61009;SDS011;46897;55.340;86.082;2023-05-02T22:50:08;47.90;;;20.30;;
61009;SDS011;46897;55.340;86.082;2023-05-02T22:52:37;51.28;;;22.63;;
61009;SDS011;46897;55.340;86.082;2023-05-02T22:57:54;47.97;;;21.75;;
61009;SDS011;46897;55.340;86.082;2023-05-02T23:00:23;57.25;;;26.15;;
61009;SDS011;46897;55.340;86.082;2023-05-02T23:05:42;46.40;;;20.98;;
61009;SDS011;46897;55.340;86.082;2023-05-02T23:08:28;45.25;;;20.63;;
61009;SDS011;46897;55.340;86.082;2023-05-02T23:11:15;46.15;;;20.17;;
61009;SDS011;46897;55.340;86.082;2023-05-02T23:13:44;44.60;;;21.40;;
61009;SDS011;46897;55.340;86.082;2023-05-02T23:16:13;49.90;;;20.35;;
61009;SDS011;46897;55.340;86.082;2023-05-02T23:18:43;50.90;;;20.83;;
61009;SDS011;46897;55.340;86.082;2023-05-02T23:21:15;52.83;;;21.63;;
61009;SDS011;46897;55.340;86.082;2023-05-02T23:23:44;52.08;;;20.55;;
61009;SDS011;46897;55.340;86.082;2023-05-02T23:26:14;49.67;;;20.25;;
61009;SDS011;46897;55.340;86.082;2023-05-02T23:28:43;42.03;;;19.98;;
61009;SDS011;46897;55.340;86.082;2023-05-02T23:31:12;48.08;;;20.02;;
61009;SDS011;46897;55.340;86.082;2023-05-02T23:33:41;51.63;;;20.80;;
61009;SDS011;46897;55.340;86.082;2023-05-02T23:36:10;51.15;;;20.00;;
61009;SDS011;46897;55.340;86.082;2023-05-02T23:38:59;59.10;;;22.98;;
61009;SDS011;46897;55.340;86.082;2023-05-02T23:41:28;50.78;;;20.17;;
61009;SDS011;46897;55.340;86.082;2023-05-02T23:43:58;44.40;;;18.23;;
61009;SDS011;46897;55.340;86.082;2023-05-02T23:46:45;45.30;;;18.17;;
61009;SDS011;46897;55.340;86.082;2023-05-02T23:49:31;44.90;;;18.83;;
61009;SDS011;46897;55.340;86.082;2023-05-02T23:52:00;40.90;;;18.25;;
61009;SDS011;46897;55.340;86.082;2023-05-02T23:54:31;44.22;;;18.58;;
61009;SDS011;46897;55.340;86.082;2023-05-02T23:57:17;42.60;;;17.98;;
61009;SDS011;46897;55.340;86.082;2023-05-02T23:59:47;52.85;;;19.75;;
